createdAt,value
2017-05-25T00:00:07.182Z,15.84
2017-05-25T00:01:07.730Z,15.86
2017-05-25T00:02:07.415Z,15.88
2017-05-25T00:03:08.070Z,15.90
2017-05-25T00:04:07.689Z,15.91
2017-05-25T00:05:07.343Z,15.91
2017-05-25T00:06:07.991Z,15.92
2017-05-25T00:07:07.702Z,15.91
2017-05-25T00:08:07.297Z,15.91
2017-05-25T00:09:07.932Z,15.92
2017-05-25T00:10:07.540Z,15.91
2017-05-25T00:11:07.239Z,15.92
2017-05-25T00:12:07.905Z,15.93
2017-05-25T00:13:07.557Z,15.94
2017-05-25T00:14:07.155Z,15.93
2017-05-25T00:15:07.978Z,15.91
2017-05-25T00:16:07.524Z,15.87
2017-05-25T00:17:07.266Z,15.87
2017-05-25T00:18:08.005Z,15.85
2017-05-25T00:19:07.641Z,15.84
2017-05-25T00:20:07.258Z,15.82
2017-05-25T00:21:07.920Z,15.80
2017-05-25T00:22:07.525Z,15.81
2017-05-25T00:23:07.257Z,15.81
2017-05-25T00:24:07.854Z,15.79
2017-05-25T00:25:07.450Z,15.78
2017-05-25T00:26:07.146Z,15.78
2017-05-25T00:27:07.738Z,15.79
2017-05-25T00:28:07.472Z,15.81
2017-05-25T00:29:07.060Z,15.82
2017-05-25T00:30:07.755Z,15.79
2017-05-25T00:31:07.348Z,15.81
2017-05-25T00:32:07.995Z,15.76
2017-05-25T00:33:07.661Z,15.72
2017-05-25T00:34:07.302Z,15.75
2017-05-25T00:35:07.946Z,15.78
2017-05-25T00:36:07.567Z,15.77
2017-05-25T00:37:07.200Z,15.76
2017-05-25T00:38:07.889Z,15.75
2017-05-25T00:39:07.504Z,15.75
2017-05-25T00:40:07.136Z,15.73
2017-05-25T00:41:07.796Z,15.74
2017-05-25T00:42:07.437Z,15.72
2017-05-25T00:43:07.119Z,15.70
2017-05-25T00:44:07.701Z,15.68
2017-05-25T00:45:07.486Z,15.65
2017-05-25T00:46:08.018Z,15.65
2017-05-25T00:47:07.655Z,15.67
2017-05-25T00:48:07.380Z,15.64
2017-05-25T00:49:08.051Z,15.67
2017-05-25T00:50:07.605Z,15.68
2017-05-25T00:51:07.275Z,15.62
2017-05-25T00:52:07.900Z,15.57
2017-05-25T00:53:07.538Z,15.57
2017-05-25T00:54:07.212Z,15.54
2017-05-25T00:55:07.819Z,15.59
2017-05-25T00:56:07.514Z,15.63
2017-05-25T00:57:07.103Z,15.67
2017-05-25T00:58:07.789Z,15.59
2017-05-25T00:59:07.461Z,15.62
2017-05-25T01:00:07.085Z,15.65
2017-05-25T01:01:07.726Z,15.65
2017-05-25T01:02:07.345Z,15.64
2017-05-25T01:03:08.102Z,15.64
2017-05-25T01:04:07.713Z,15.65
2017-05-25T01:05:07.357Z,15.66
2017-05-25T01:06:07.973Z,15.69
2017-05-25T01:07:07.640Z,15.68
2017-05-25T01:08:07.294Z,15.66
2017-05-25T01:09:07.953Z,15.66
2017-05-25T01:10:07.643Z,15.68
2017-05-25T01:11:07.200Z,15.65
2017-05-25T01:12:07.778Z,15.67
2017-05-25T01:13:07.465Z,15.66
2017-05-25T01:14:07.130Z,15.65
2017-05-25T01:15:07.780Z,15.62
2017-05-25T01:16:07.438Z,15.58
2017-05-25T01:17:07.157Z,15.56
2017-05-25T01:18:07.884Z,15.54
2017-05-25T01:19:07.572Z,15.55
2017-05-25T01:20:07.201Z,15.60
2017-05-25T01:21:07.852Z,15.63
2017-05-25T01:22:07.512Z,15.64
2017-05-25T01:23:07.167Z,15.64
2017-05-25T01:24:07.855Z,15.59
2017-05-25T01:25:07.495Z,15.54
2017-05-25T01:26:07.130Z,15.53
2017-05-25T01:27:07.771Z,15.55
2017-05-25T01:28:07.488Z,15.57
2017-05-25T01:29:07.163Z,15.56
2017-05-25T01:30:07.796Z,15.55
2017-05-25T01:31:07.426Z,15.54
2017-05-25T01:32:07.095Z,15.57
2017-05-25T01:33:07.747Z,15.56
2017-05-25T01:34:07.413Z,15.55
2017-05-25T01:35:07.061Z,15.54
2017-05-25T01:36:07.701Z,15.53
2017-05-25T01:37:07.400Z,15.52
2017-05-25T01:38:08.013Z,15.54
2017-05-25T01:39:07.710Z,15.51
2017-05-25T01:40:07.343Z,15.50
2017-05-25T01:41:07.995Z,15.50
2017-05-25T01:42:07.668Z,15.49
2017-05-25T01:43:07.278Z,15.50
2017-05-25T01:44:07.977Z,15.52
2017-05-25T01:45:07.645Z,15.53
2017-05-25T01:46:07.268Z,15.51
2017-05-25T01:47:07.888Z,15.50
2017-05-25T01:48:07.542Z,15.45
2017-05-25T01:49:07.223Z,15.47
2017-05-25T01:50:07.855Z,15.48
2017-05-25T01:51:07.507Z,15.49
2017-05-25T01:52:07.136Z,15.51
2017-05-25T01:53:07.798Z,15.51
2017-05-25T01:54:07.471Z,15.50
2017-05-25T01:55:07.123Z,15.51
2017-05-25T01:56:07.749Z,15.52
2017-05-25T01:57:07.344Z,15.52
2017-05-25T01:58:08.052Z,15.54
2017-05-25T01:59:07.697Z,15.53
2017-05-25T02:00:07.320Z,15.51
2017-05-25T02:01:07.996Z,15.52
2017-05-25T02:02:07.613Z,15.48
2017-05-25T02:03:07.240Z,15.42
2017-05-25T02:04:07.930Z,15.38
2017-05-25T02:05:07.549Z,15.44
2017-05-25T02:06:07.206Z,15.47
2017-05-25T02:07:07.808Z,15.47
2017-05-25T02:08:07.496Z,15.47
2017-05-25T02:09:07.180Z,15.49
2017-05-25T02:10:07.821Z,15.50
2017-05-25T02:11:07.440Z,15.50
2017-05-25T02:12:07.100Z,15.52
2017-05-25T02:13:07.718Z,15.55
2017-05-25T02:14:07.377Z,15.56
2017-05-25T02:15:08.096Z,15.55
2017-05-25T02:16:07.650Z,15.55
2017-05-25T02:17:07.320Z,15.54
2017-05-25T02:18:07.117Z,15.52
2017-05-25T02:19:07.770Z,15.51
2017-05-25T02:20:07.435Z,15.49
2017-05-25T02:21:07.107Z,15.50
2017-05-25T02:22:07.715Z,15.51
2017-05-25T02:23:07.331Z,15.49
2017-05-25T02:24:08.012Z,15.48
2017-05-25T02:25:07.725Z,15.39
2017-05-25T02:26:07.403Z,15.39
2017-05-25T02:27:07.910Z,15.43
2017-05-25T02:28:07.594Z,15.46
2017-05-25T02:29:07.248Z,15.44
2017-05-25T02:30:07.886Z,15.43
2017-05-25T02:31:07.590Z,15.43
2017-05-25T02:32:07.185Z,15.44
2017-05-25T02:33:07.935Z,15.39
2017-05-25T02:34:07.537Z,15.38
2017-05-25T02:35:07.205Z,15.40
2017-05-25T02:36:07.930Z,15.43
2017-05-25T02:37:07.569Z,15.44
2017-05-25T02:38:07.503Z,15.45
2017-05-25T02:39:07.159Z,15.43
2017-05-25T02:40:07.936Z,15.45
2017-05-25T02:41:07.511Z,15.46
2017-05-25T02:42:07.131Z,15.46
2017-05-25T02:43:07.801Z,15.46
2017-05-25T02:44:07.444Z,15.46
2017-05-25T02:45:07.165Z,15.45
2017-05-25T02:46:07.787Z,15.44
2017-05-25T02:47:07.660Z,15.46
2017-05-25T02:48:07.090Z,15.50
2017-05-25T02:49:07.780Z,15.51
2017-05-25T02:50:07.423Z,15.52
2017-05-25T02:51:07.071Z,15.54
2017-05-25T02:52:07.746Z,15.52
2017-05-25T02:53:07.325Z,15.51
2017-05-25T02:54:08.023Z,15.52
2017-05-25T02:55:07.745Z,15.53
2017-05-25T02:56:07.410Z,15.51
2017-05-25T02:57:08.030Z,15.49
2017-05-25T02:58:07.702Z,15.48
2017-05-25T02:59:07.360Z,15.45
2017-05-25T03:00:07.956Z,15.46
2017-05-25T03:01:07.636Z,15.40
2017-05-25T03:02:07.261Z,15.36
2017-05-25T03:03:07.913Z,15.37
2017-05-25T03:04:07.582Z,15.40
2017-05-25T03:05:07.214Z,15.43
2017-05-25T03:06:07.932Z,15.44
2017-05-25T03:07:07.577Z,15.43
2017-05-25T03:08:07.187Z,15.46
2017-05-25T03:09:07.834Z,15.49
2017-05-25T03:10:07.536Z,15.48
2017-05-25T03:11:07.209Z,15.47
2017-05-25T03:12:07.831Z,15.46
2017-05-25T03:13:07.476Z,15.47
2017-05-25T03:14:07.180Z,15.46
2017-05-25T03:15:07.780Z,15.44
2017-05-25T03:16:07.419Z,15.46
2017-05-25T03:17:07.197Z,15.48
2017-05-25T03:18:07.856Z,15.50
2017-05-25T03:19:07.511Z,15.52
2017-05-25T03:20:07.148Z,15.51
2017-05-25T03:21:07.850Z,15.47
2017-05-25T03:22:07.472Z,15.49
2017-05-25T03:23:07.124Z,15.50
2017-05-25T03:24:07.714Z,15.46
2017-05-25T03:25:07.370Z,15.50
2017-05-25T03:26:08.043Z,15.48
2017-05-25T03:27:07.614Z,15.43
2017-05-25T03:28:07.335Z,15.41
2017-05-25T03:29:07.939Z,15.43
2017-05-25T03:30:07.620Z,15.44
2017-05-25T03:31:07.329Z,15.46
2017-05-25T03:32:07.956Z,15.47
2017-05-25T03:33:07.626Z,15.47
2017-05-25T03:34:07.511Z,15.50
2017-05-25T03:35:07.205Z,15.51
2017-05-25T03:36:07.883Z,15.53
2017-05-25T03:37:07.520Z,15.52
2017-05-25T03:38:07.128Z,15.51
2017-05-25T03:39:07.791Z,15.51
2017-05-25T03:40:07.482Z,15.50
2017-05-25T03:41:07.155Z,15.51
2017-05-25T03:42:07.795Z,15.51
2017-05-25T03:43:07.489Z,15.52
2017-05-25T03:44:07.114Z,15.50
2017-05-25T03:45:07.812Z,15.48
2017-05-25T03:46:07.512Z,15.47
2017-05-25T03:47:07.139Z,15.50
2017-05-25T03:48:07.759Z,15.52
2017-05-25T03:49:07.428Z,15.52
2017-05-25T03:50:07.056Z,15.52
2017-05-25T03:51:07.720Z,15.50
2017-05-25T03:52:07.398Z,15.48
2017-05-25T03:53:07.127Z,15.46
2017-05-25T03:54:07.715Z,15.46
2017-05-25T03:55:07.368Z,15.48
2017-05-25T03:56:08.037Z,15.50
2017-05-25T03:57:07.658Z,15.53
2017-05-25T03:58:07.304Z,15.54
2017-05-25T03:59:07.909Z,15.58
2017-05-25T04:00:07.568Z,15.60
2017-05-25T04:01:07.277Z,15.62
2017-05-25T04:02:07.898Z,15.63
2017-05-25T04:03:07.554Z,15.60
2017-05-25T04:04:07.168Z,15.63
2017-05-25T04:05:07.818Z,15.64
2017-05-25T04:06:07.532Z,15.63
2017-05-25T04:07:07.150Z,15.64
2017-05-25T04:08:07.795Z,15.65
2017-05-25T04:09:07.452Z,15.62
2017-05-25T04:10:07.106Z,15.58
2017-05-25T04:11:07.766Z,15.59
2017-05-25T04:12:07.366Z,15.59
2017-05-25T04:13:08.044Z,15.62
2017-05-25T04:14:07.680Z,15.61
2017-05-25T04:15:07.454Z,15.61
2017-05-25T04:16:07.994Z,15.61
2017-05-25T04:17:07.717Z,15.57
2017-05-25T04:18:07.470Z,15.54
2017-05-25T04:19:07.087Z,15.56
2017-05-25T04:20:07.710Z,15.57
2017-05-25T04:21:07.422Z,15.56
2017-05-25T04:22:07.062Z,15.57
2017-05-25T04:23:07.663Z,15.60
2017-05-25T04:24:07.372Z,15.60
2017-05-25T04:25:10.529Z,15.61
2017-05-25T04:26:07.557Z,15.62
2017-05-25T04:27:07.197Z,15.53
2017-05-25T04:28:07.378Z,15.48
2017-05-25T04:29:07.039Z,15.45
2017-05-25T04:30:07.691Z,15.44
2017-05-25T04:31:07.402Z,15.46
2017-05-25T04:32:07.048Z,15.53
2017-05-25T04:33:07.695Z,15.59
2017-05-25T04:34:07.400Z,15.60
2017-05-25T04:35:07.950Z,15.62
2017-05-25T04:36:07.649Z,15.61
2017-05-25T04:37:07.274Z,15.62
2017-05-25T04:38:07.958Z,15.63
2017-05-25T04:39:07.630Z,15.66
2017-05-25T04:40:07.268Z,15.69
2017-05-25T04:41:08.001Z,15.69
2017-05-25T04:42:07.576Z,15.68
2017-05-25T04:43:07.203Z,15.64
2017-05-25T04:44:07.886Z,15.64
2017-05-25T04:45:07.639Z,15.66
2017-05-25T04:46:14.702Z,15.65
2017-05-25T04:47:07.879Z,15.65
2017-05-25T04:48:07.490Z,15.64
2017-05-25T04:49:07.121Z,15.65
2017-05-25T04:50:07.775Z,15.59
2017-05-25T04:51:07.478Z,15.60
2017-05-25T04:52:07.127Z,15.60
2017-05-25T04:53:07.793Z,15.60
2017-05-25T04:54:07.416Z,15.62
2017-05-25T04:55:07.019Z,15.61
2017-05-25T04:56:07.709Z,15.60
2017-05-25T04:57:07.386Z,15.59
2017-05-25T04:58:07.553Z,15.58
2017-05-25T04:59:07.161Z,15.58
2017-05-25T05:00:07.871Z,15.59
2017-05-25T05:01:07.581Z,15.59
2017-05-25T05:02:07.165Z,15.56
2017-05-25T05:03:07.847Z,15.55
2017-05-25T05:04:07.505Z,15.55
2017-05-25T05:05:07.126Z,15.55
2017-05-25T05:06:07.841Z,15.57
2017-05-25T05:07:07.475Z,15.56
2017-05-25T05:08:07.598Z,15.57
2017-05-25T05:09:07.254Z,15.59
2017-05-25T05:10:07.922Z,15.59
2017-05-25T05:11:07.750Z,15.58
2017-05-25T05:12:07.235Z,15.59
2017-05-25T05:13:07.919Z,15.60
2017-05-25T05:14:07.562Z,15.62
2017-05-25T05:15:07.787Z,15.63
2017-05-25T05:16:07.396Z,15.63
2017-05-25T05:17:07.117Z,15.63
2017-05-25T05:18:07.867Z,15.60
2017-05-25T05:19:07.528Z,15.60
2017-05-25T05:20:07.206Z,15.60
2017-05-25T05:21:07.857Z,15.61
2017-05-25T05:22:07.438Z,15.60
2017-05-25T05:23:07.096Z,15.60
2017-05-25T05:24:07.689Z,15.60
2017-05-25T05:25:07.397Z,15.61
2017-05-25T05:26:07.027Z,15.60
2017-05-25T05:27:07.651Z,15.59
2017-05-25T05:28:07.316Z,15.60
2017-05-25T05:29:07.948Z,15.61
2017-05-25T05:30:07.579Z,15.61
2017-05-25T05:31:07.261Z,15.59
2017-05-25T05:32:07.919Z,15.58
2017-05-25T05:33:07.510Z,15.55
2017-05-25T05:34:07.175Z,15.54
2017-05-25T05:35:07.837Z,15.48
2017-05-25T05:36:07.494Z,15.52
2017-05-25T05:37:07.143Z,15.56
2017-05-25T05:38:07.748Z,15.56
2017-05-25T05:39:07.456Z,15.59
2017-05-25T05:40:07.057Z,15.48
2017-05-25T05:41:07.750Z,15.47
2017-05-25T05:42:07.395Z,15.51
2017-05-25T05:43:07.061Z,15.55
2017-05-25T05:44:07.708Z,15.51
2017-05-25T05:45:07.398Z,15.56
2017-05-25T05:46:08.034Z,15.59
2017-05-25T05:47:07.635Z,15.64
2017-05-25T05:48:07.261Z,15.66
2017-05-25T05:49:07.940Z,15.68
2017-05-25T05:50:07.535Z,15.69
2017-05-25T05:51:07.251Z,15.71
2017-05-25T05:52:07.914Z,15.68
2017-05-25T05:53:07.536Z,15.65
2017-05-25T05:54:07.194Z,15.64
2017-05-25T05:55:07.848Z,15.66
2017-05-25T05:56:07.634Z,15.67
2017-05-25T05:57:07.142Z,15.66
2017-05-25T05:58:07.268Z,15.65
2017-05-25T05:59:07.954Z,15.66
2017-05-25T06:00:07.576Z,15.62
2017-05-25T06:01:07.265Z,15.63
2017-05-25T06:02:07.894Z,15.61
2017-05-25T06:03:07.539Z,15.60
2017-05-25T06:04:07.210Z,15.55
2017-05-25T06:05:07.892Z,15.55
2017-05-25T06:06:07.528Z,15.57
2017-05-25T06:07:07.167Z,15.56
2017-05-25T06:08:07.783Z,15.56
2017-05-25T06:09:07.469Z,15.56
2017-05-25T06:10:07.116Z,15.57
2017-05-25T06:11:07.885Z,15.57
2017-05-25T06:12:07.435Z,15.56
2017-05-25T06:13:07.231Z,15.55
2017-05-25T06:14:07.819Z,15.59
2017-05-25T06:15:07.659Z,15.58
2017-05-25T06:16:07.124Z,15.55
2017-05-25T06:17:07.927Z,15.52
2017-05-25T06:18:07.627Z,15.54
2017-05-25T06:19:07.262Z,15.53
2017-05-25T06:20:07.939Z,15.53
2017-05-25T06:21:07.611Z,15.51
2017-05-25T06:22:07.271Z,15.51
2017-05-25T06:23:07.898Z,15.49
2017-05-25T06:24:07.576Z,15.48
2017-05-25T06:25:07.416Z,15.46
2017-05-25T06:26:07.154Z,15.46
2017-05-25T06:27:07.811Z,15.47
2017-05-25T06:28:07.443Z,15.43
2017-05-25T06:29:07.060Z,15.43
2017-05-25T06:30:07.718Z,15.43
2017-05-25T06:31:07.371Z,15.45
2017-05-25T06:32:08.038Z,15.46
2017-05-25T06:33:07.659Z,15.46
2017-05-25T06:34:07.356Z,15.49
2017-05-25T06:35:07.970Z,15.46
2017-05-25T06:36:07.635Z,15.45
2017-05-25T06:37:07.299Z,15.45
2017-05-25T06:38:07.891Z,15.45
2017-05-25T06:39:07.700Z,15.44
2017-05-25T06:40:07.324Z,15.45
2017-05-25T06:41:07.993Z,15.45
2017-05-25T06:42:07.647Z,15.42
2017-05-25T06:43:07.449Z,15.42
2017-05-25T06:44:07.987Z,15.41
2017-05-25T06:45:07.768Z,15.42
2017-05-25T06:46:07.283Z,15.43
2017-05-25T06:47:07.909Z,15.43
2017-05-25T06:48:07.541Z,15.43
2017-05-25T06:49:07.211Z,15.44
2017-05-25T06:50:07.886Z,15.42
2017-05-25T06:51:07.542Z,15.40
2017-05-25T06:52:07.279Z,15.39
2017-05-25T06:53:07.410Z,15.37
2017-05-25T06:54:07.044Z,15.38
2017-05-25T06:55:07.707Z,15.36
2017-05-25T06:56:07.384Z,15.35
2017-05-25T06:57:08.018Z,15.35
2017-05-25T06:58:07.610Z,15.39
2017-05-25T06:59:07.286Z,15.45
2017-05-25T07:00:07.954Z,15.49
2017-05-25T07:01:07.603Z,15.53
2017-05-25T07:02:07.255Z,15.57
2017-05-25T07:03:07.880Z,15.62
2017-05-25T07:04:07.572Z,15.64
2017-05-25T07:05:07.223Z,15.62
2017-05-25T07:06:07.903Z,15.62
2017-05-25T07:07:07.586Z,15.63
2017-05-25T07:08:07.212Z,15.63
2017-05-25T07:09:07.866Z,15.63
2017-05-25T07:10:07.536Z,15.65
2017-05-25T07:11:07.236Z,15.71
2017-05-25T07:12:07.905Z,15.74
2017-05-25T07:13:07.626Z,15.76
2017-05-25T07:14:07.285Z,15.78
2017-05-25T07:15:07.981Z,15.80
2017-05-25T07:16:07.577Z,15.82
2017-05-25T07:17:07.368Z,15.84
2017-05-25T07:18:07.026Z,15.83
2017-05-25T07:19:07.720Z,15.82
2017-05-25T07:20:07.352Z,15.81
2017-05-25T07:21:07.960Z,15.82
2017-05-25T07:22:07.672Z,15.82
2017-05-25T07:23:07.285Z,15.80
2017-05-25T07:24:07.923Z,15.79
2017-05-25T07:25:07.596Z,15.81
2017-05-25T07:26:07.312Z,15.83
2017-05-25T07:27:08.203Z,15.83
2017-05-25T07:28:07.729Z,15.83
2017-05-25T07:29:07.396Z,15.84
2017-05-25T07:30:07.086Z,15.85
2017-05-25T07:31:07.724Z,15.85
2017-05-25T07:32:07.308Z,15.89
2017-05-25T07:33:08.021Z,15.89
2017-05-25T07:34:07.608Z,15.92
2017-05-25T07:35:07.278Z,15.95
2017-05-25T07:36:07.971Z,16.01
2017-05-25T07:37:07.640Z,16.05
2017-05-25T07:38:07.382Z,16.10
2017-05-25T07:39:07.909Z,16.13
2017-05-25T07:40:07.604Z,16.15
2017-05-25T07:41:07.277Z,16.14
2017-05-25T07:42:08.098Z,16.18
2017-05-25T07:43:07.622Z,16.20
2017-05-25T07:44:07.269Z,16.23
2017-05-25T07:45:07.953Z,16.24
2017-05-25T07:46:07.537Z,16.27
2017-05-25T07:47:07.205Z,16.27
2017-05-25T07:48:07.884Z,16.28
2017-05-25T07:49:07.492Z,16.31
2017-05-25T07:50:07.269Z,16.31
2017-05-25T07:51:07.816Z,16.36
2017-05-25T07:52:07.457Z,16.42
2017-05-25T07:53:07.169Z,16.46
2017-05-25T07:54:07.752Z,16.50
2017-05-25T07:55:07.427Z,16.48
2017-05-25T07:56:07.160Z,16.47
2017-05-25T07:57:07.943Z,16.47
2017-05-25T07:58:07.570Z,16.47
2017-05-25T07:59:07.170Z,16.49
2017-05-25T08:00:07.802Z,16.54
2017-05-25T08:01:07.459Z,16.61
2017-05-25T08:02:07.110Z,16.65
2017-05-25T08:03:07.787Z,16.68
2017-05-25T08:04:07.453Z,16.70
2017-05-25T08:05:07.141Z,16.69
2017-05-25T08:06:07.689Z,16.67
2017-05-25T08:07:07.307Z,16.69
2017-05-25T08:08:08.017Z,16.66
2017-05-25T08:09:07.621Z,16.64
2017-05-25T08:10:07.311Z,16.67
2017-05-25T08:11:07.993Z,16.69
2017-05-25T08:12:07.604Z,16.71
2017-05-25T08:13:07.316Z,16.75
2017-05-25T08:14:07.942Z,16.78
2017-05-25T08:15:07.724Z,16.77
2017-05-25T08:16:07.251Z,16.81
2017-05-25T08:17:07.964Z,16.78
2017-05-25T08:18:07.723Z,16.75
2017-05-25T08:19:07.324Z,16.74
2017-05-25T08:20:07.989Z,16.76
2017-05-25T08:21:07.641Z,16.74
2017-05-25T08:22:07.307Z,16.81
2017-05-25T08:23:08.027Z,16.82
2017-05-25T08:24:07.647Z,16.83
2017-05-25T08:25:07.347Z,16.82
2017-05-25T08:26:07.994Z,16.81
2017-05-25T08:27:07.761Z,16.86
2017-05-25T08:28:07.321Z,16.88
2017-05-25T08:29:08.053Z,16.86
2017-05-25T08:30:07.603Z,16.91
2017-05-25T08:31:07.269Z,16.97
2017-05-25T08:32:08.153Z,17.03
2017-05-25T08:33:07.598Z,17.03
2017-05-25T08:34:07.220Z,17.07
2017-05-25T08:35:07.899Z,17.12
2017-05-25T08:36:07.563Z,17.15
2017-05-25T08:37:07.179Z,17.19
2017-05-25T08:38:07.975Z,17.24
2017-05-25T08:39:07.478Z,17.25
2017-05-25T08:40:07.113Z,17.28
2017-05-25T08:41:07.773Z,17.26
2017-05-25T08:42:07.626Z,17.23
2017-05-25T08:43:07.396Z,17.19
2017-05-25T08:44:07.966Z,17.13
2017-05-25T08:45:07.748Z,17.05
2017-05-25T08:46:07.241Z,16.99
2017-05-25T08:47:07.962Z,16.98
2017-05-25T08:48:07.616Z,16.97
2017-05-25T08:49:07.224Z,16.92
2017-05-25T08:50:07.918Z,16.92
2017-05-25T08:51:07.517Z,16.91
2017-05-25T08:52:07.153Z,16.92
2017-05-25T08:53:07.257Z,16.93
2017-05-25T08:54:07.857Z,16.96
2017-05-25T08:55:07.475Z,16.93
2017-05-25T08:56:07.199Z,16.96
2017-05-25T08:57:07.826Z,16.96
2017-05-25T08:58:07.957Z,16.90
2017-05-25T08:59:07.561Z,16.88
2017-05-25T09:00:07.205Z,16.87
2017-05-25T09:01:07.828Z,16.88
2017-05-25T09:02:07.469Z,16.89
2017-05-25T09:03:07.156Z,16.90
2017-05-25T09:04:07.842Z,16.90
2017-05-25T09:05:07.459Z,16.86
2017-05-25T09:06:07.106Z,16.85
2017-05-25T09:07:07.748Z,16.86
2017-05-25T09:08:07.461Z,16.86
2017-05-25T09:09:07.082Z,16.83
2017-05-25T09:10:07.760Z,16.82
2017-05-25T09:11:07.388Z,16.82
2017-05-25T09:12:08.038Z,16.83
2017-05-25T09:13:07.706Z,16.83
2017-05-25T09:14:07.334Z,16.87
2017-05-25T09:15:08.044Z,16.90
2017-05-25T09:16:07.630Z,16.98
2017-05-25T09:17:07.354Z,17.08
2017-05-25T09:18:07.183Z,17.14
2017-05-25T09:19:07.758Z,17.22
2017-05-25T09:20:07.427Z,17.29
2017-05-25T09:21:07.093Z,17.35
2017-05-25T09:22:07.729Z,17.37
2017-05-25T09:23:07.423Z,17.44
2017-05-25T09:24:08.026Z,17.49
2017-05-25T09:25:07.692Z,17.54
2017-05-25T09:26:07.365Z,17.57
2017-05-25T09:27:08.015Z,17.61
2017-05-25T09:28:07.689Z,17.66
2017-05-25T09:29:07.267Z,17.71
2017-05-25T09:30:07.984Z,17.76
2017-05-25T09:31:07.626Z,17.69
2017-05-25T09:32:07.230Z,17.66
2017-05-25T09:33:07.945Z,17.58
2017-05-25T09:34:07.583Z,17.60
2017-05-25T09:35:07.214Z,17.65
2017-05-25T09:36:07.933Z,17.71
2017-05-25T09:37:07.547Z,17.70
2017-05-25T09:38:07.217Z,17.73
2017-05-25T09:39:07.828Z,17.73
2017-05-25T09:40:07.469Z,17.77
2017-05-25T09:41:07.163Z,17.82
2017-05-25T09:42:07.804Z,17.87
2017-05-25T09:43:07.473Z,17.87
2017-05-25T09:44:07.083Z,17.80
2017-05-25T09:45:07.857Z,17.77
2017-05-25T09:46:07.340Z,17.70
2017-05-25T09:47:08.035Z,17.65
2017-05-25T09:48:07.681Z,17.60
2017-05-25T09:49:07.318Z,17.59
2017-05-25T09:50:07.943Z,17.57
2017-05-25T09:51:07.595Z,17.54
2017-05-25T09:52:07.244Z,17.48
2017-05-25T09:53:07.927Z,17.51
2017-05-25T09:54:07.526Z,17.53
2017-05-25T09:55:07.163Z,17.54
2017-05-25T09:56:07.913Z,17.43
2017-05-25T09:57:07.449Z,17.46
2017-05-25T09:58:07.557Z,17.44
2017-05-25T09:59:07.266Z,17.49
2017-05-25T10:00:07.842Z,17.51
2017-05-25T10:01:07.476Z,17.53
2017-05-25T10:02:07.141Z,17.53
2017-05-25T10:03:07.826Z,17.55
2017-05-25T10:04:07.432Z,17.54
2017-05-25T10:05:07.092Z,17.54
2017-05-25T10:06:07.751Z,17.53
2017-05-25T10:07:07.339Z,17.51
2017-05-25T10:08:08.035Z,17.50
2017-05-25T10:09:07.670Z,17.52
2017-05-25T10:10:07.311Z,17.51
2017-05-25T10:11:08.005Z,17.52
2017-05-25T10:12:07.686Z,17.53
2017-05-25T10:13:07.407Z,17.57
2017-05-25T10:14:08.055Z,17.60
2017-05-25T10:15:07.802Z,17.60
2017-05-25T10:16:07.285Z,17.54
2017-05-25T10:17:08.014Z,17.49
2017-05-25T10:18:07.979Z,17.48
2017-05-25T10:19:07.355Z,17.49
2017-05-25T10:20:08.056Z,17.52
2017-05-25T10:21:07.678Z,17.53
2017-05-25T10:22:07.309Z,17.55
2017-05-25T10:23:07.972Z,17.57
2017-05-25T10:24:07.660Z,17.59
2017-05-25T10:25:07.265Z,17.58
2017-05-25T10:26:07.854Z,17.60
2017-05-25T10:27:07.593Z,17.57
2017-05-25T10:28:07.376Z,17.58
2017-05-25T10:29:07.992Z,17.64
2017-05-25T10:30:07.641Z,17.71
2017-05-25T10:31:07.256Z,17.78
2017-05-25T10:32:07.891Z,17.87
2017-05-25T10:33:07.564Z,17.92
2017-05-25T10:34:07.235Z,17.98
2017-05-25T10:35:07.876Z,18.04
2017-05-25T10:36:07.525Z,18.09
2017-05-25T10:37:07.157Z,18.13
2017-05-25T10:38:07.806Z,18.14
2017-05-25T10:39:07.401Z,18.10
2017-05-25T10:40:07.072Z,18.03
2017-05-25T10:41:07.750Z,18.03
2017-05-25T10:42:07.423Z,17.89
2017-05-25T10:43:07.630Z,17.89
2017-05-25T10:44:07.274Z,17.92
2017-05-25T10:45:08.026Z,17.93
2017-05-25T10:46:07.564Z,17.95
2017-05-25T10:47:07.203Z,17.95
2017-05-25T10:48:07.913Z,17.93
2017-05-25T10:49:07.542Z,17.98
2017-05-25T10:50:07.089Z,18.01
2017-05-25T10:51:07.794Z,18.00
2017-05-25T10:52:07.476Z,18.02
2017-05-25T10:53:07.120Z,18.02
2017-05-25T10:54:07.757Z,18.07
2017-05-25T10:55:07.348Z,18.16
2017-05-25T10:56:08.017Z,18.22
2017-05-25T10:57:07.664Z,18.32
2017-05-25T10:58:07.344Z,18.40
2017-05-25T10:59:07.928Z,18.42
2017-05-25T11:00:07.660Z,18.43
2017-05-25T11:01:07.220Z,18.40
2017-05-25T11:02:07.888Z,18.32
2017-05-25T11:03:07.609Z,18.26
2017-05-25T11:04:07.250Z,18.21
2017-05-25T11:05:07.878Z,18.17
2017-05-25T11:06:07.558Z,18.14
2017-05-25T11:07:07.205Z,18.14
2017-05-25T11:08:07.916Z,18.16
2017-05-25T11:09:07.492Z,18.17
2017-05-25T11:10:07.184Z,18.18
2017-05-25T11:11:07.782Z,18.18
2017-05-25T11:12:07.444Z,18.15
2017-05-25T11:13:07.637Z,18.16
2017-05-25T11:14:07.395Z,18.17
2017-05-25T11:15:08.110Z,18.19
2017-05-25T11:16:07.644Z,18.20
2017-05-25T11:17:07.328Z,18.18
2017-05-25T11:18:07.096Z,18.15
2017-05-25T11:19:07.710Z,18.19
2017-05-25T11:20:07.344Z,18.18
2017-05-25T11:21:08.035Z,18.21
2017-05-25T11:22:07.685Z,18.20
2017-05-25T11:23:07.360Z,18.19
2017-05-25T11:24:08.028Z,18.17
2017-05-25T11:25:07.683Z,18.16
2017-05-25T11:26:07.296Z,18.15
2017-05-25T11:27:07.544Z,18.13
2017-05-25T11:28:07.160Z,18.13
2017-05-25T11:29:07.766Z,18.13
2017-05-25T11:30:07.432Z,18.15
2017-05-25T11:31:07.081Z,18.15
2017-05-25T11:32:07.737Z,18.22
2017-05-25T11:33:07.388Z,18.22
2017-05-25T11:34:08.020Z,18.22
2017-05-25T11:35:07.659Z,18.24
2017-05-25T11:36:07.326Z,18.32
2017-05-25T11:37:07.971Z,18.38
2017-05-25T11:38:07.669Z,18.48
2017-05-25T11:39:07.819Z,18.56
2017-05-25T11:40:07.480Z,18.59
2017-05-25T11:41:07.151Z,18.62
2017-05-25T11:42:08.081Z,18.66
2017-05-25T11:43:07.668Z,18.71
2017-05-25T11:44:07.269Z,18.71
2017-05-25T11:45:08.057Z,18.77
2017-05-25T11:46:07.602Z,18.86
2017-05-25T11:47:07.246Z,18.86
2017-05-25T11:48:07.932Z,18.79
2017-05-25T11:49:07.522Z,18.74
2017-05-25T11:50:07.856Z,18.62
2017-05-25T11:51:07.554Z,18.53
2017-05-25T11:52:07.207Z,18.53
2017-05-25T11:53:07.913Z,18.53
2017-05-25T11:54:07.538Z,18.53
2017-05-25T11:55:07.212Z,18.51
2017-05-25T11:56:07.831Z,18.49
2017-05-25T11:57:07.819Z,18.52
2017-05-25T11:58:07.807Z,18.54
2017-05-25T11:59:07.410Z,18.55
2017-05-25T12:00:07.042Z,18.57
2017-05-25T12:01:07.721Z,18.58
2017-05-25T12:02:07.341Z,18.61
2017-05-25T12:03:08.036Z,18.63
2017-05-25T12:04:07.658Z,18.64
2017-05-25T12:05:07.299Z,18.63
2017-05-25T12:06:07.957Z,18.61
2017-05-25T12:07:07.648Z,18.59
2017-05-25T12:08:07.347Z,18.59
2017-05-25T12:09:07.970Z,18.56
2017-05-25T12:10:07.602Z,18.56
2017-05-25T12:11:07.336Z,18.58
2017-05-25T12:12:08.013Z,18.58
2017-05-25T12:13:07.330Z,18.61
2017-05-25T12:14:07.950Z,18.64
2017-05-25T12:15:07.676Z,18.65
2017-05-25T12:16:07.230Z,18.67
2017-05-25T12:17:07.969Z,18.72
2017-05-25T12:18:07.724Z,18.76
2017-05-25T12:19:07.322Z,18.70
2017-05-25T12:20:07.982Z,18.75
2017-05-25T12:21:07.691Z,18.78
2017-05-25T12:22:07.323Z,18.82
2017-05-25T12:23:07.952Z,18.79
2017-05-25T12:24:07.586Z,18.79
2017-05-25T12:25:07.291Z,18.93
2017-05-25T12:26:07.968Z,19.04
2017-05-25T12:27:07.585Z,19.17
2017-05-25T12:28:07.433Z,19.16
2017-05-25T12:29:07.969Z,19.15
2017-05-25T12:30:07.603Z,19.18
2017-05-25T12:31:07.288Z,19.28
2017-05-25T12:32:07.902Z,19.31
2017-05-25T12:33:07.615Z,19.22
2017-05-25T12:34:07.192Z,19.15
2017-05-25T12:35:07.853Z,19.08
2017-05-25T12:36:07.493Z,19.00
2017-05-25T12:37:07.153Z,18.98
2017-05-25T12:38:07.859Z,18.97
2017-05-25T12:39:07.463Z,18.97
2017-05-25T12:40:07.095Z,18.99
2017-05-25T12:41:07.757Z,19.00
2017-05-25T12:42:07.461Z,18.99
2017-05-25T12:43:07.367Z,19.01
2017-05-25T12:44:07.878Z,18.99
2017-05-25T12:45:07.642Z,18.98
2017-05-25T12:46:07.187Z,19.00
2017-05-25T12:47:07.843Z,18.97
2017-05-25T12:48:07.532Z,18.98
2017-05-25T12:49:07.094Z,18.98
2017-05-25T12:50:07.761Z,19.00
2017-05-25T12:51:07.363Z,19.03
2017-05-25T12:52:08.013Z,19.06